createdAt,value
2023-04-18T00:00:46.209Z,11.73
2023-04-18T00:03:16.046Z,11.75
2023-04-18T00:05:44.121Z,11.63
2023-04-18T00:08:10.945Z,11.75
2023-04-18T00:10:37.784Z,11.60
2023-04-18T00:13:04.715Z,11.98
2023-04-18T00:15:31.769Z,11.68
2023-04-18T00:17:58.704Z,12.02
2023-04-18T00:20:28.580Z,12.20
2023-04-18T00:22:56.264Z,11.25
2023-04-18T00:25:23.208Z,12.40
2023-04-18T00:27:50.034Z,11.88
2023-04-18T00:30:16.914Z,11.68
2023-04-18T00:32:43.919Z,12.10
2023-04-18T00:35:10.981Z,11.13
2023-04-18T00:37:37.906Z,12.32
2023-04-18T00:40:05.705Z,11.35
2023-04-18T00:42:33.105Z,12.07
2023-04-18T00:44:59.947Z,12.27
2023-04-18T00:47:26.858Z,11.98
2023-04-18T00:49:54.376Z,12.57
2023-04-18T00:52:21.594Z,11.73
2023-04-18T00:54:48.444Z,11.85
2023-04-18T00:57:15.335Z,11.43
2023-04-18T00:59:42.548Z,11.90
2023-04-18T01:02:09.386Z,12.20
2023-04-18T01:04:37.396Z,11.90
2023-04-18T01:07:04.563Z,11.57
2023-04-18T01:09:31.520Z,12.27
2023-04-18T01:11:58.392Z,12.00
2023-04-18T01:14:27.830Z,11.65
2023-04-18T01:16:54.862Z,12.60
2023-04-18T01:19:21.673Z,12.63
2023-04-18T01:21:48.509Z,12.63
2023-04-18T01:24:16.440Z,12.27
2023-04-18T01:26:44.875Z,12.50
2023-04-18T01:29:11.881Z,12.15
2023-04-18T01:31:39.181Z,12.15
2023-04-18T01:34:06.543Z,11.88
2023-04-18T01:36:33.409Z,12.07
2023-04-18T01:39:00.824Z,11.57
2023-04-18T01:41:29.790Z,12.38
2023-04-18T01:43:56.647Z,11.60
2023-04-18T01:46:23.671Z,12.27
2023-04-18T01:48:50.578Z,11.82
2023-04-18T01:51:17.368Z,11.20
2023-04-18T01:53:44.339Z,10.90
2023-04-18T01:56:11.191Z,10.88
2023-04-18T01:58:38.019Z,11.45
2023-04-18T02:01:05.027Z,10.70
2023-04-18T02:03:32.103Z,11.30
2023-04-18T02:05:59.767Z,10.82
2023-04-18T02:08:26.624Z,11.60
2023-04-18T02:10:53.417Z,11.13
2023-04-18T02:13:20.317Z,10.85
2023-04-18T02:15:47.131Z,11.45
2023-04-18T02:18:13.949Z,10.70
2023-04-18T02:20:40.734Z,11.27
2023-04-18T02:23:07.653Z,10.75
2023-04-18T02:25:34.440Z,11.40
2023-04-18T02:28:01.265Z,11.57
2023-04-18T02:30:28.084Z,11.60
2023-04-18T02:32:57.144Z,11.05
2023-04-18T02:35:24.120Z,11.40
2023-04-18T02:37:51.017Z,10.65
2023-04-18T02:40:18.116Z,11.77
2023-04-18T02:42:45.025Z,11.23
2023-04-18T02:45:12.953Z,11.88
2023-04-18T02:47:51.121Z,11.23
2023-04-18T02:50:21.115Z,11.50
2023-04-18T02:52:47.949Z,11.10
2023-04-18T02:55:14.931Z,10.75
2023-04-18T02:57:41.928Z,11.20
2023-04-18T03:00:09.393Z,11.27
2023-04-18T03:02:36.376Z,11.45
2023-04-18T03:05:03.532Z,11.48
2023-04-18T03:07:31.127Z,11.23
2023-04-18T03:09:58.097Z,11.45
2023-04-18T03:12:24.942Z,11.00
2023-04-18T03:14:51.867Z,10.98
2023-04-18T03:17:18.712Z,11.38
2023-04-18T03:19:46.543Z,11.85
2023-04-18T03:22:14.265Z,11.43
2023-04-18T03:24:41.131Z,10.82
2023-04-18T03:27:07.977Z,11.60
2023-04-18T03:29:34.897Z,11.30
2023-04-18T03:32:01.802Z,12.02
2023-04-18T03:34:29.373Z,11.90
2023-04-18T03:36:56.458Z,11.75
2023-04-18T03:39:23.298Z,11.10
2023-04-18T03:41:50.244Z,11.38
2023-04-18T03:44:17.032Z,10.98
2023-04-18T03:46:44.123Z,10.82
2023-04-18T03:49:11.008Z,10.95
2023-04-18T03:51:47.296Z,11.35
2023-04-18T03:54:17.266Z,11.02
2023-04-18T03:56:44.402Z,10.90
2023-04-18T03:59:11.427Z,11.43
2023-04-18T04:01:38.328Z,11.23
2023-04-18T04:04:05.371Z,10.30
2023-04-18T04:06:32.612Z,11.20
2023-04-18T04:08:59.428Z,11.60
2023-04-18T04:11:26.860Z,11.13
2023-04-18T04:13:53.697Z,11.13
2023-04-18T04:16:20.800Z,10.70
2023-04-18T04:18:47.680Z,10.45
2023-04-18T04:21:14.608Z,10.68
2023-04-18T04:23:46.242Z,10.48
2023-04-18T04:26:17.760Z,10.77
2023-04-18T04:31:13.582Z,10.00
2023-04-18T04:33:41.143Z,10.45
2023-04-18T04:36:09.009Z,10.45
2023-04-18T04:38:38.286Z,10.07
2023-04-18T04:41:09.709Z,9.88
2023-04-18T04:43:36.633Z,10.43
2023-04-18T04:46:04.382Z,10.32
2023-04-18T04:48:31.346Z,10.95
2023-04-18T04:50:58.852Z,10.95
2023-04-18T04:53:26.546Z,10.20
2023-04-18T04:55:53.565Z,10.25
2023-04-18T04:58:20.514Z,10.52
2023-04-18T05:00:47.458Z,10.02
2023-04-18T05:03:14.557Z,10.23
2023-04-18T05:05:41.445Z,10.57
2023-04-18T05:08:08.402Z,10.38
2023-04-18T05:10:37.370Z,9.75
2023-04-18T05:13:04.370Z,10.43
2023-04-18T05:15:31.628Z,9.93
2023-04-18T05:17:58.896Z,10.40
2023-04-18T05:20:25.879Z,10.48
2023-04-18T05:22:52.727Z,10.73
2023-04-18T05:25:19.878Z,10.23
2023-04-18T05:27:47.293Z,10.18
2023-04-18T05:30:14.577Z,10.60
2023-04-18T05:32:41.731Z,10.85
2023-04-18T05:35:09.049Z,9.73
2023-04-18T05:37:35.883Z,9.52
2023-04-18T05:40:05.085Z,9.65
2023-04-18T05:42:31.994Z,9.88
2023-04-18T05:44:58.869Z,10.02
2023-04-18T05:47:28.531Z,10.32
2023-04-18T05:49:55.544Z,9.65
2023-04-18T05:52:22.430Z,9.93
2023-04-18T05:54:49.266Z,10.55
2023-04-18T05:57:16.172Z,10.02
2023-04-18T05:59:43.276Z,8.93
2023-04-18T06:02:13.660Z,9.88
2023-04-18T06:04:45.426Z,10.10
2023-04-18T06:07:13.108Z,10.15
2023-04-18T06:09:39.933Z,10.10
2023-04-18T06:12:06.831Z,9.25
2023-04-18T06:14:33.861Z,9.48
2023-04-18T06:17:00.836Z,9.75
2023-04-18T06:19:27.751Z,10.15
2023-04-18T06:21:54.570Z,9.35
2023-04-18T06:24:21.389Z,9.80
2023-04-18T06:26:48.309Z,10.18
2023-04-18T06:29:15.309Z,9.57
2023-04-18T06:31:43.822Z,9.20
2023-04-18T06:34:10.704Z,9.02
2023-04-18T06:36:37.560Z,9.50
2023-04-18T06:39:04.560Z,9.98
2023-04-18T14:51:37.736Z,3.35
2023-04-18T14:54:10.633Z,3.63
2023-04-18T14:56:40.442Z,3.70
2023-04-18T14:59:10.670Z,3.67
2023-04-18T15:01:39.403Z,3.38
2023-04-18T15:04:07.145Z,4.13
2023-04-18T15:06:37.313Z,3.30
2023-04-18T15:09:06.961Z,3.22
2023-04-18T15:11:34.276Z,3.30
2023-04-18T15:14:01.660Z,3.92
2023-04-18T15:16:33.275Z,3.22
2023-04-18T15:19:00.740Z,3.00
2023-04-18T15:21:28.010Z,3.28
2023-04-18T15:23:56.164Z,3.22
2023-04-18T15:26:26.527Z,2.65
2023-04-18T15:28:54.686Z,3.25
2023-04-18T15:31:23.681Z,3.08
2023-04-18T15:33:51.829Z,2.92
2023-04-18T15:36:18.692Z,3.00
2023-04-18T15:38:45.566Z,2.97
2023-04-18T15:41:12.475Z,3.30
2023-04-18T15:43:42.035Z,2.85
2023-04-18T15:46:09.350Z,2.92
2023-04-18T15:48:36.529Z,3.28
2023-04-18T15:51:03.910Z,3.40
2023-04-18T15:53:30.700Z,3.65
2023-04-18T15:56:00.008Z,3.40
2023-04-18T15:58:30.101Z,3.65
2023-04-18T16:00:57.269Z,3.20
2023-04-18T16:03:24.755Z,3.40
2023-04-18T16:05:51.893Z,3.67
2023-04-18T16:08:18.675Z,3.95
2023-04-18T16:10:45.510Z,3.22
2023-04-18T16:13:12.369Z,3.92
2023-04-18T16:15:41.636Z,4.45
2023-04-18T16:18:08.576Z,3.63
2023-04-18T16:20:35.700Z,4.20
2023-04-18T16:23:02.771Z,4.53
2023-04-18T16:25:29.815Z,4.63
2023-04-18T16:27:56.619Z,5.07
2023-04-18T16:30:23.418Z,5.30
2023-04-18T16:32:50.337Z,6.47
2023-04-18T16:35:17.325Z,6.22
2023-04-18T16:37:44.144Z,5.78
2023-04-18T16:40:11.182Z,5.70
2023-04-18T16:42:37.937Z,6.60
2023-04-18T16:45:04.928Z,6.70
2023-04-18T16:47:31.798Z,5.72
2023-04-18T16:49:58.583Z,5.53
2023-04-18T16:52:25.368Z,6.70
2023-04-18T16:54:52.870Z,6.75
2023-04-18T16:57:19.756Z,6.82
2023-04-18T16:59:47.391Z,7.25
2023-04-18T17:02:14.368Z,7.25
2023-04-18T17:04:42.225Z,8.45
2023-04-18T17:07:09.047Z,7.05
2023-04-18T17:09:36.006Z,6.75
2023-04-18T17:12:03.624Z,7.35
2023-04-18T17:14:30.432Z,8.10
2023-04-18T17:16:57.307Z,7.57
2023-04-18T17:19:24.441Z,7.55
2023-04-18T17:21:51.548Z,8.15
2023-04-18T17:24:18.896Z,8.18
2023-04-18T17:26:45.738Z,7.90
2023-04-18T17:29:12.707Z,7.28
2023-04-18T17:31:39.895Z,7.97
2023-04-18T17:34:07.096Z,7.70
2023-04-18T17:36:33.904Z,7.65
2023-04-18T17:39:06.797Z,8.15
2023-04-18T17:41:37.828Z,8.32
2023-04-18T17:44:05.233Z,7.65
2023-04-18T17:46:32.681Z,8.43
2023-04-18T17:48:59.805Z,9.45
2023-04-18T17:51:27.517Z,10.35
2023-04-18T17:53:55.177Z,25.55
2023-04-18T17:56:22.340Z,12.73
2023-04-18T17:58:49.262Z,13.48
2023-04-18T18:01:20.128Z,11.68
2023-04-18T18:03:48.226Z,9.60
2023-04-18T18:06:15.632Z,10.45
2023-04-18T18:08:43.104Z,9.40
2023-04-18T18:11:10.785Z,9.93
2023-04-18T18:13:39.121Z,9.80
2023-04-18T18:16:06.633Z,8.55
2023-04-18T18:18:33.520Z,9.88
2023-04-18T18:21:00.307Z,9.95
2023-04-18T18:23:27.309Z,9.30
2023-04-18T18:25:54.140Z,10.40
2023-04-18T18:28:20.959Z,10.25
2023-04-18T18:30:47.903Z,8.90
2023-04-18T18:33:15.148Z,9.45
2023-04-18T18:35:41.984Z,8.52
2023-04-18T18:38:08.794Z,10.15
2023-04-18T18:40:35.625Z,8.82
2023-04-18T18:43:02.412Z,8.65
2023-04-18T18:45:29.285Z,8.23
2023-04-18T18:47:56.126Z,8.75
2023-04-18T18:50:23.340Z,8.57
2023-04-18T18:52:50.156Z,9.45
2023-04-18T18:55:16.947Z,9.70
2023-04-18T18:57:43.776Z,9.93
2023-04-18T19:00:13.893Z,10.80
2023-04-18T19:02:41.103Z,8.85
2023-04-18T19:05:08.251Z,10.68
2023-04-18T19:07:35.149Z,8.88
2023-04-18T19:10:02.105Z,9.38
2023-04-18T19:12:29.414Z,9.75
2023-04-18T19:14:56.450Z,8.02
2023-04-18T19:17:24.798Z,8.30
2023-04-18T19:19:52.696Z,9.82
2023-04-18T19:22:19.512Z,9.05
2023-04-18T19:24:46.288Z,8.68
2023-04-18T19:27:13.276Z,9.15
2023-04-18T19:29:40.088Z,9.43
2023-04-18T19:32:06.935Z,14.52
2023-04-18T19:34:33.777Z,11.38
2023-04-18T19:37:01.341Z,9.18
2023-04-18T19:39:28.330Z,9.20
2023-04-18T19:41:55.201Z,9.27
2023-04-18T19:44:22.006Z,9.70
2023-04-18T19:46:48.778Z,7.30
2023-04-18T19:49:16.169Z,9.18
2023-04-18T19:51:43.139Z,7.53
2023-04-18T19:54:09.971Z,8.65
2023-04-18T19:56:36.870Z,7.55
2023-04-18T19:59:05.940Z,8.57
2023-04-18T20:01:32.961Z,9.20
2023-04-18T20:04:00.724Z,8.88
2023-04-18T20:06:28.062Z,7.43
2023-04-18T20:08:55.220Z,7.25
2023-04-18T20:11:22.409Z,6.90
2023-04-18T20:13:49.487Z,7.25
2023-04-18T20:16:17.021Z,7.38
2023-04-18T20:18:47.418Z,8.13
2023-04-18T20:21:14.362Z,7.45
2023-04-18T20:23:42.660Z,7.57
2023-04-18T20:26:09.558Z,7.38
2023-04-18T20:28:37.948Z,7.53
2023-04-18T20:31:04.884Z,8.00
2023-04-18T20:33:31.780Z,7.55
2023-04-18T20:35:59.079Z,7.80
2023-04-18T20:38:29.703Z,8.50
2023-04-18T20:40:58.960Z,8.02
2023-04-18T20:43:26.035Z,7.75
2023-04-18T20:45:53.980Z,8.23
2023-04-18T20:48:21.304Z,7.25
2023-04-18T20:50:51.608Z,7.07
2023-04-18T20:53:20.761Z,7.00
2023-04-18T20:55:48.401Z,7.28
2023-04-18T20:58:16.893Z,7.90
2023-04-18T21:00:48.425Z,7.68
2023-04-18T21:05:43.333Z,6.57
2023-04-18T21:08:11.161Z,7.00
2023-04-18T21:10:38.234Z,7.30
2023-04-18T21:13:05.094Z,7.00
2023-04-18T21:15:32.001Z,7.13
2023-04-18T21:17:58.931Z,6.32
2023-04-18T21:20:25.799Z,7.90
2023-04-18T21:22:52.620Z,7.75
2023-04-18T21:25:21.355Z,6.60
2023-04-18T21:27:50.622Z,6.80
2023-04-18T21:30:17.784Z,6.85
2023-04-18T21:32:45.978Z,6.80
2023-04-18T21:35:12.926Z,7.25
2023-04-18T21:37:39.815Z,6.50
2023-04-18T21:40:07.040Z,7.25
2023-04-18T21:42:35.525Z,6.40
2023-04-18T21:45:02.506Z,7.13
2023-04-18T21:47:29.554Z,6.47
2023-04-18T21:49:56.436Z,6.65
2023-04-18T21:52:23.426Z,6.50
2023-04-18T21:54:50.305Z,7.40
2023-04-18T21:57:17.098Z,6.32
2023-04-18T21:59:43.995Z,6.72
2023-04-18T22:02:10.895Z,6.72
2023-04-18T22:04:38.171Z,6.70
2023-04-18T22:07:05.052Z,6.15
2023-04-18T22:09:34.411Z,6.70
2023-04-18T22:12:03.677Z,6.95
2023-04-18T22:14:32.218Z,8.10
2023-04-18T22:16:59.204Z,6.80
2023-04-18T22:19:27.669Z,7.63
2023-04-18T22:21:54.461Z,7.63
2023-04-18T22:24:22.024Z,7.93
2023-04-18T22:26:48.863Z,8.15
2023-04-18T22:29:15.821Z,7.78
2023-04-18T22:31:43.139Z,7.95
2023-04-18T22:34:10.002Z,7.57
2023-04-18T22:36:37.646Z,8.10
2023-04-18T22:39:04.809Z,8.32
2023-04-18T22:41:31.653Z,7.80
2023-04-18T22:43:58.475Z,7.75
2023-04-18T22:46:25.348Z,8.05
2023-04-18T22:48:52.269Z,8.73
2023-04-18T22:51:20.242Z,8.88
2023-04-18T22:53:47.068Z,8.15
2023-04-18T22:56:13.934Z,9.98
2023-04-18T22:58:40.877Z,9.77
2023-04-18T23:01:07.772Z,8.27
2023-04-18T23:03:34.827Z,8.32
2023-04-18T23:06:01.811Z,8.52
2023-04-18T23:08:28.696Z,8.30
2023-04-18T23:10:55.673Z,8.32
2023-04-18T23:13:22.935Z,8.95
2023-04-18T23:15:49.814Z,9.38
2023-04-18T23:18:16.672Z,9.00
2023-04-18T23:20:43.477Z,8.50
2023-04-18T23:23:10.366Z,9.02
2023-04-18T23:25:37.178Z,8.75
2023-04-18T23:28:04.037Z,8.52
2023-04-18T23:30:30.956Z,8.88
2023-04-18T23:32:57.771Z,9.27
2023-04-18T23:35:24.569Z,8.90
2023-04-18T23:37:51.417Z,8.95
2023-04-18T23:40:18.321Z,9.02
2023-04-18T23:42:45.230Z,8.52
2023-04-18T23:45:12.108Z,8.63
2023-04-18T23:47:38.932Z,9.05
2023-04-18T23:50:06.030Z,8.98
2023-04-18T23:52:32.885Z,8.85
2023-04-18T23:55:00.822Z,10.35
2023-04-18T23:57:27.821Z,8.68
2023-04-18T23:59:54.640Z,9.75
